Overview Statistics Trail Chart Weather Telemetry Raw packets
 

This is the latest recevied weather packets stored in our database for station/object EA5JMY-10. If no packets are shown the sender has not sent any weather packets the latest 10 day(s).

<< 11 12 13 14 15 16 17 >>
Time Temp. Humidity Pressure Rain* Wind** Luminosity Snow
1788342024 37.22° C 38% 1022.6 hPa - - - -
1788341123 38.33° C 36% 1022.7 hPa - - - -
1788340223 35° C 42% 1022.7 hPa - - - -
1788339323 34.44° C 44% 1022.9 hPa - - - -
1788338423 32.22° C 51% 1022.7 hPa - - - -
1788337523 32.22° C 50% 1022.6 hPa - - - -
1788336623 34.44° C 45% 1022.6 hPa - - - -
1788335722 30.56° C 55% 1022.3 hPa - - - -
1788334822 31.67° C 53% 1022 hPa - - - -
1788333922 33.89° C 46% 1021.9 hPa - - - -
1788333022 36.11° C 42% 1021.7 hPa - - - -
1788332122 35° C 45% 1021.7 hPa - - - -
1788331222 28.89° C 62% 1021.4 hPa - - - -
1788330322 27.78° C 68% 1021.3 hPa - - - -
1788329422 26.11° C 71% 1021.2 hPa - - - -
1788328521 25° C 73% 1021.2 hPa - - - -
1788327621 25° C 73% 1021 hPa - - - -
1788326721 25° C 74% 1020.8 hPa - - - -
1788325821 24.44° C 77% 1020.8 hPa - - - -
1788324921 25° C 78% 1020.6 hPa - - - -
1788324021 25° C 77% 1020.4 hPa - - - -
1788323121 25° C 77% 1020.4 hPa - - - -
1788322221 25° C 74% 1020.5 hPa - - - -
1788321321 25.56° C 74% 1020.5 hPa - - - -
1788320420 25.56° C 75% 1020.6 hPa - - - -

* Rain since midnight (hover to see other rain measurements)
** Current wind speed in m/s (hover to see current wind gust speed)